createdAt,value
2017-09-26T00:01:25.387Z,12.30
2017-09-26T00:03:52.830Z,12.30
2017-09-26T00:06:20.262Z,12.40
2017-09-26T00:08:47.691Z,12.50
2017-09-26T00:11:15.141Z,12.50
2017-09-26T00:13:42.598Z,12.50
2017-09-26T00:16:10.037Z,12.50
2017-09-26T00:18:37.473Z,12.50
2017-09-26T00:21:04.942Z,12.60
2017-09-26T00:23:32.392Z,12.60
2017-09-26T00:25:59.851Z,12.70
2017-09-26T00:28:27.305Z,12.70
2017-09-26T00:30:54.761Z,12.70
2017-09-26T00:33:22.201Z,12.70
2017-09-26T00:35:50.093Z,12.70
2017-09-26T00:38:17.555Z,12.80
2017-09-26T00:40:44.998Z,12.80
2017-09-26T00:43:12.459Z,12.80
2017-09-26T00:45:39.891Z,13.00
2017-09-26T00:48:07.324Z,12.90
2017-09-26T00:50:35.532Z,12.90
2017-09-26T00:53:03.254Z,12.90
2017-09-26T00:55:30.677Z,13.00
2017-09-26T00:57:58.117Z,13.00
2017-09-26T01:00:25.555Z,13.00
2017-09-26T01:02:52.998Z,13.00
2017-09-26T01:05:31.098Z,13.00
2017-09-26T01:07:59.321Z,13.10
2017-09-26T01:10:26.760Z,13.10
2017-09-26T01:12:54.258Z,13.00
2017-09-26T01:15:21.689Z,13.10
2017-09-26T01:17:49.126Z,13.00
2017-09-26T01:20:16.563Z,13.00
2017-09-26T01:22:44.773Z,13.00
2017-09-26T01:25:12.205Z,13.00
2017-09-26T01:27:39.655Z,13.00
2017-09-26T01:30:07.096Z,13.10
2017-09-26T01:32:34.537Z,13.00
2017-09-26T01:35:01.972Z,13.00
2017-09-26T01:37:29.421Z,13.10
2017-09-26T01:39:56.855Z,13.00
2017-09-26T01:42:24.288Z,13.00
2017-09-26T01:44:52.526Z,13.00
2017-09-26T01:47:19.937Z,12.90
2017-09-26T01:49:47.391Z,12.90
2017-09-26T01:52:15.648Z,12.90
2017-09-26T01:54:43.861Z,12.80
2017-09-26T01:57:12.180Z,12.90
2017-09-26T01:59:42.187Z,12.80
2017-09-26T02:02:09.620Z,12.80
2017-09-26T02:04:37.074Z,12.80
2017-09-26T02:07:04.526Z,12.80
2017-09-26T02:09:31.944Z,12.80
2017-09-26T02:11:59.370Z,12.80
2017-09-26T02:14:26.816Z,12.70
2017-09-26T02:16:54.246Z,12.70
2017-09-26T02:19:21.675Z,12.70
2017-09-26T02:21:49.872Z,12.60
2017-09-26T02:24:17.303Z,12.60
2017-09-26T02:26:45.501Z,12.60
2017-09-26T02:29:12.929Z,12.50
2017-09-26T02:31:40.359Z,12.50
2017-09-26T02:34:07.794Z,12.50
2017-09-26T02:36:35.232Z,12.40
2017-09-26T02:39:02.663Z,12.40
2017-09-26T02:41:30.860Z,12.40
2017-09-26T02:43:58.289Z,12.40
2017-09-26T02:46:26.774Z,12.40
2017-09-26T02:48:54.972Z,12.40
2017-09-26T02:51:22.416Z,12.40
2017-09-26T02:53:50.605Z,12.30
2017-09-26T02:56:18.045Z,12.30
2017-09-26T02:58:46.249Z,12.20
2017-09-26T03:01:13.682Z,12.10
2017-09-26T03:03:41.912Z,12.10
2017-09-26T03:06:09.341Z,12.00
2017-09-26T03:08:36.775Z,12.10
2017-09-26T03:11:04.213Z,12.10
2017-09-26T03:13:32.410Z,12.00
2017-09-26T03:15:59.856Z,12.00
2017-09-26T03:18:28.065Z,12.00
2017-09-26T03:20:55.616Z,12.00
2017-09-26T03:23:23.044Z,12.00
2017-09-26T03:25:51.251Z,12.00
2017-09-26T03:28:18.699Z,11.90
2017-09-26T03:30:46.225Z,11.90
2017-09-26T03:33:14.500Z,11.90
2017-09-26T03:35:42.781Z,11.90
2017-09-26T03:38:10.984Z,11.90
2017-09-26T03:40:38.419Z,11.90
2017-09-26T03:43:05.862Z,11.90
2017-09-26T03:45:33.284Z,11.90
2017-09-26T03:48:00.729Z,12.00
2017-09-26T03:50:28.160Z,11.90
2017-09-26T03:52:55.597Z,11.90
2017-09-26T03:55:23.796Z,12.00
2017-09-26T03:57:51.235Z,12.00
2017-09-26T04:00:19.444Z,11.90
2017-09-26T04:02:46.905Z,11.90
2017-09-26T04:05:15.328Z,11.90
2017-09-26T04:07:42.747Z,11.80
2017-09-26T04:10:10.176Z,11.80
2017-09-26T04:12:37.612Z,11.80
2017-09-26T04:15:05.824Z,11.80
2017-09-26T04:17:33.252Z,11.80
2017-09-26T04:20:00.692Z,11.70
2017-09-26T04:22:28.923Z,11.70
2017-09-26T04:24:56.394Z,11.60
2017-09-26T04:27:23.832Z,11.60
2017-09-26T04:29:51.281Z,11.70
2017-09-26T04:32:18.711Z,11.70
2017-09-26T04:34:47.181Z,11.70
2017-09-26T04:37:15.381Z,11.70
2017-09-26T04:39:42.861Z,11.70
2017-09-26T04:42:10.264Z,11.70
2017-09-26T04:44:39.456Z,11.80
2017-09-26T04:47:06.896Z,11.80
2017-09-26T04:49:34.334Z,11.80
2017-09-26T04:52:01.820Z,11.90
2017-09-26T04:54:30.312Z,12.00
2017-09-26T04:56:57.751Z,11.90
2017-09-26T04:59:25.208Z,11.90
2017-09-26T05:01:52.657Z,12.00
2017-09-26T05:04:20.065Z,12.00
2017-09-26T05:06:47.495Z,12.00
2017-09-26T05:09:14.918Z,12.10
2017-09-26T05:11:42.357Z,12.10
2017-09-26T05:14:09.791Z,12.20
2017-09-26T05:16:37.228Z,12.10
2017-09-26T05:19:05.464Z,12.10
2017-09-26T05:21:32.911Z,12.10
2017-09-26T05:24:00.348Z,12.30
2017-09-26T05:26:27.792Z,12.30
2017-09-26T05:28:55.230Z,12.40
2017-09-26T05:31:23.434Z,12.50
2017-09-26T05:33:50.861Z,12.50
2017-09-26T05:36:19.071Z,12.60
2017-09-26T05:38:46.505Z,12.60
2017-09-26T05:41:15.691Z,12.70
2017-09-26T05:43:43.892Z,12.70
2017-09-26T05:46:11.371Z,12.70
2017-09-26T05:48:38.833Z,12.70
2017-09-26T05:51:06.305Z,12.60
2017-09-26T05:53:33.736Z,12.60
2017-09-26T05:56:01.172Z,12.60
2017-09-26T05:58:28.611Z,12.60
2017-09-26T06:00:56.812Z,12.70
2017-09-26T06:03:24.256Z,12.70
2017-09-26T06:05:51.690Z,12.70
2017-09-26T06:08:19.130Z,12.80
2017-09-26T06:10:46.563Z,12.80
2017-09-26T06:13:14.004Z,12.80
2017-09-26T06:15:41.422Z,12.80
2017-09-26T06:18:08.864Z,12.80
2017-09-26T06:20:36.297Z,12.90
2017-09-26T06:23:03.775Z,12.90
2017-09-26T06:25:31.241Z,12.90
2017-09-26T06:27:58.699Z,12.90
2017-09-26T06:30:26.120Z,13.00
2017-09-26T06:32:53.557Z,13.00
2017-09-26T06:35:20.983Z,13.10
2017-09-26T06:37:49.189Z,13.20
2017-09-26T06:40:16.639Z,13.10
2017-09-26T06:42:44.237Z,13.20
2017-09-26T06:45:11.672Z,13.30
2017-09-26T06:47:39.103Z,13.40
2017-09-26T06:50:10.078Z,13.50
2017-09-26T06:52:37.511Z,13.50
2017-09-26T06:55:05.955Z,13.50
2017-09-26T06:57:33.388Z,13.60
2017-09-26T07:00:00.975Z,13.60
2017-09-26T07:02:29.181Z,13.70
2017-09-26T07:04:56.743Z,13.70
2017-09-26T07:07:24.172Z,13.80
2017-09-26T07:09:52.373Z,13.70
2017-09-26T07:12:19.799Z,13.70
2017-09-26T07:14:47.235Z,13.80
2017-09-26T07:17:14.664Z,13.80
2017-09-26T07:19:42.095Z,13.80
2017-09-26T07:22:09.526Z,13.90
2017-09-26T07:24:36.958Z,13.90
2017-09-26T07:27:10.070Z,14.00
2017-09-26T07:29:38.272Z,14.30
2017-09-26T07:32:05.699Z,14.20
2017-09-26T07:34:33.899Z,14.20
2017-09-26T07:37:01.333Z,14.20
2017-09-26T07:39:29.532Z,14.30
2017-09-26T07:41:56.975Z,14.30
2017-09-26T07:44:25.182Z,14.40
2017-09-26T07:46:52.607Z,14.40
2017-09-26T07:49:20.816Z,14.50
2017-09-26T07:51:48.247Z,14.50
2017-09-26T07:54:15.683Z,14.60
2017-09-26T07:56:43.915Z,14.60
2017-09-26T07:59:11.491Z,14.70
2017-09-26T08:01:38.931Z,14.80
2017-09-26T08:04:06.721Z,14.90
2017-09-26T08:06:34.315Z,15.00
2017-09-26T08:09:03.920Z,15.20
2017-09-26T08:11:32.126Z,15.20
2017-09-26T08:13:59.548Z,15.20
2017-09-26T08:16:26.982Z,15.20
2017-09-26T08:18:54.415Z,15.20
2017-09-26T08:21:21.903Z,15.20
2017-09-26T08:23:49.336Z,15.30
2017-09-26T08:26:16.785Z,15.20
2017-09-26T08:28:44.215Z,15.10
2017-09-26T08:31:11.635Z,15.20
2017-09-26T08:33:39.844Z,15.20
2017-09-26T08:36:07.277Z,15.20
2017-09-26T08:38:35.480Z,15.30
2017-09-26T08:41:02.903Z,15.30
2017-09-26T08:43:31.108Z,15.30
2017-09-26T08:45:58.544Z,15.30
2017-09-26T08:48:26.744Z,15.50
2017-09-26T08:50:54.180Z,15.50
2017-09-26T08:53:22.400Z,15.40
2017-09-26T08:55:49.831Z,15.40
2017-09-26T08:58:17.256Z,15.50
2017-09-26T09:00:44.688Z,15.60
2017-09-26T09:03:12.112Z,15.60
2017-09-26T09:05:39.549Z,15.50
2017-09-26T09:08:06.982Z,15.70
2017-09-26T09:10:34.412Z,15.70
2017-09-26T09:13:01.843Z,15.90
2017-09-26T09:15:29.279Z,16.00
2017-09-26T09:17:56.709Z,16.10
2017-09-26T09:20:24.907Z,16.00
2017-09-26T09:22:52.336Z,16.00
2017-09-26T09:25:20.551Z,16.30
2017-09-26T09:27:47.989Z,16.20
2017-09-26T09:30:15.426Z,16.50
2017-09-26T09:32:43.619Z,16.60
2017-09-26T09:35:12.107Z,16.60
2017-09-26T09:37:39.548Z,16.90
2017-09-26T09:40:07.755Z,17.60
2017-09-26T09:42:35.181Z,17.50
2017-09-26T09:45:02.612Z,17.90
2017-09-26T09:47:30.048Z,18.30
2017-09-26T09:52:28.287Z,19.00
2017-09-26T09:54:55.725Z,19.10
2017-09-26T09:57:23.160Z,19.40
2017-09-26T09:59:50.600Z,19.20
2017-09-26T10:02:18.042Z,19.40
2017-09-26T10:04:45.472Z,19.70
2017-09-26T10:07:12.908Z,20.10
2017-09-26T10:09:41.103Z,20.40
2017-09-26T10:12:08.536Z,20.40
2017-09-26T10:14:35.971Z,20.30
2017-09-26T10:17:03.411Z,20.40
2017-09-26T10:19:30.838Z,20.40
2017-09-26T10:21:58.275Z,20.60
2017-09-26T10:24:26.467Z,21.10
2017-09-26T10:26:53.904Z,21.00
2017-09-26T10:29:22.105Z,21.40
2017-09-26T10:31:51.487Z,21.30
2017-09-26T10:34:19.680Z,21.50
2017-09-26T10:36:47.115Z,21.50
2017-09-26T10:39:15.310Z,21.80
2017-09-26T10:41:42.739Z,21.70
2017-09-26T10:44:10.944Z,22.00
2017-09-26T10:46:38.372Z,22.00
2017-09-26T10:49:06.571Z,21.90
2017-09-26T10:51:34.007Z,21.90
2017-09-26T10:54:02.202Z,22.20
2017-09-26T10:56:29.629Z,22.20
2017-09-26T10:58:57.059Z,22.40
2017-09-26T11:01:24.503Z,22.60
2017-09-26T11:03:51.935Z,22.10
2017-09-26T11:06:19.367Z,21.90
2017-09-26T11:08:47.567Z,21.50
2017-09-26T11:11:16.923Z,21.50
2017-09-26T11:13:44.364Z,21.30
2017-09-26T11:16:11.804Z,21.20
2017-09-26T11:18:39.250Z,21.10
2017-09-26T11:21:06.675Z,20.80
2017-09-26T11:23:34.896Z,20.70
2017-09-26T11:26:02.383Z,20.60
2017-09-26T11:28:29.819Z,20.50
2017-09-26T11:30:57.312Z,20.40
2017-09-26T11:33:25.530Z,20.30
2017-09-26T11:35:52.982Z,20.30
2017-09-26T11:38:20.438Z,20.20
2017-09-26T11:40:47.868Z,20.00
2017-09-26T11:43:16.149Z,19.80
2017-09-26T11:45:44.347Z,19.70
2017-09-26T11:48:11.783Z,19.70
2017-09-26T11:50:39.993Z,19.90
2017-09-26T11:53:07.439Z,19.90
2017-09-26T11:55:34.872Z,19.90
2017-09-26T11:58:02.317Z,20.00
2017-09-26T12:00:30.536Z,20.00
2017-09-26T12:02:57.979Z,20.00
2017-09-26T12:05:25.419Z,20.00
2017-09-26T12:07:52.852Z,19.70
2017-09-26T12:10:21.059Z,19.80
2017-09-26T12:12:54.072Z,19.70
2017-09-26T12:15:21.520Z,19.80
2017-09-26T12:17:48.965Z,20.00
2017-09-26T12:20:16.417Z,20.00
2017-09-26T12:22:43.853Z,19.90
2017-09-26T12:25:12.068Z,20.20
2017-09-26T12:27:39.503Z,20.20
2017-09-26T12:30:06.944Z,20.20
2017-09-26T12:32:35.159Z,20.30
2017-09-26T12:35:02.591Z,20.30
2017-09-26T12:37:30.028Z,20.20
2017-09-26T12:39:58.243Z,20.20
2017-09-26T12:42:25.753Z,20.20
2017-09-26T12:44:53.188Z,20.20
2017-09-26T12:47:20.619Z,20.10
2017-09-26T12:49:48.063Z,20.10
2017-09-26T12:52:17.663Z,20.40
2017-09-26T12:54:45.144Z,20.50
2017-09-26T12:57:12.592Z,20.60
2017-09-26T12:59:40.803Z,20.80
2017-09-26T13:02:09.295Z,20.80
2017-09-26T13:04:37.114Z,20.80
2017-09-26T13:07:04.523Z,20.60
2017-09-26T13:09:34.750Z,20.60
2017-09-26T13:12:02.953Z,20.60
2017-09-26T13:14:30.385Z,20.60
2017-09-26T13:16:58.592Z,20.60
2017-09-26T13:19:26.108Z,20.50
2017-09-26T13:21:55.616Z,20.60
2017-09-26T13:24:23.840Z,20.70
2017-09-26T13:26:51.292Z,20.60
2017-09-26T13:29:18.728Z,20.70
2017-09-26T13:31:46.174Z,20.70
2017-09-26T13:34:14.387Z,20.70
2017-09-26T13:36:41.797Z,20.70
2017-09-26T13:39:09.220Z,20.70
2017-09-26T13:41:36.783Z,20.70
2017-09-26T13:44:04.219Z,20.60
2017-09-26T13:46:31.725Z,20.40
2017-09-26T13:48:59.169Z,20.50
2017-09-26T13:51:30.730Z,20.40
2017-09-26T13:53:58.924Z,20.40
2017-09-26T13:56:27.132Z,20.40
2017-09-26T13:58:54.591Z,20.40
2017-09-26T14:01:22.042Z,20.50
2017-09-26T14:03:49.469Z,20.50
2017-09-26T14:06:16.900Z,20.60
2017-09-26T14:08:44.343Z,20.60
2017-09-26T14:11:11.851Z,20.70
2017-09-26T14:13:40.308Z,20.70
2017-09-26T14:16:16.232Z,20.70
2017-09-26T14:18:43.668Z,20.70
2017-09-26T14:21:18.724Z,20.70
2017-09-26T14:23:46.318Z,20.70
2017-09-26T14:26:14.515Z,20.60
2017-09-26T14:28:41.980Z,20.60
2017-09-26T14:31:09.408Z,20.70
2017-09-26T14:33:37.601Z,20.70
2017-09-26T14:36:08.304Z,20.60
2017-09-26T14:38:35.772Z,20.60
2017-09-26T14:41:05.979Z,20.60
2017-09-26T14:43:33.426Z,20.60
2017-09-26T14:46:00.899Z,20.60
2017-09-26T14:48:28.334Z,20.60
2017-09-26T14:50:55.775Z,20.50
2017-09-26T14:53:27.787Z,20.60
2017-09-26T14:55:55.985Z,20.40
2017-09-26T14:58:23.420Z,20.40
2017-09-26T15:00:51.695Z,20.40
2017-09-26T15:03:19.956Z,20.50
2017-09-26T15:05:47.390Z,20.50
2017-09-26T15:08:14.824Z,20.40
2017-09-26T15:10:42.268Z,20.50
2017-09-26T15:13:12.763Z,20.50
2017-09-26T15:15:40.963Z,20.40
2017-09-26T15:18:08.424Z,20.40
2017-09-26T15:20:36.623Z,20.40
2017-09-26T15:23:04.055Z,20.40
2017-09-26T15:25:34.969Z,20.40
2017-09-26T15:28:03.167Z,20.30
2017-09-26T15:30:30.604Z,20.30
2017-09-26T15:32:58.823Z,20.30
2017-09-26T15:35:26.436Z,20.20
2017-09-26T15:37:54.908Z,20.30
2017-09-26T15:40:22.339Z,20.20
2017-09-26T15:42:49.819Z,20.30
2017-09-26T15:45:18.066Z,20.10
2017-09-26T15:47:51.893Z,20.10
2017-09-26T15:50:19.318Z,20.10
2017-09-26T15:52:46.757Z,20.00
2017-09-26T15:55:17.782Z,20.10
2017-09-26T15:57:45.219Z,20.00
2017-09-26T16:00:12.647Z,20.00
2017-09-26T16:02:40.084Z,19.90
2017-09-26T16:05:07.503Z,20.00
2017-09-26T16:07:35.710Z,19.90
2017-09-26T16:10:03.143Z,19.90
2017-09-26T16:12:30.576Z,19.90
2017-09-26T16:14:58.000Z,19.90
2017-09-26T16:17:25.436Z,20.00
2017-09-26T16:19:52.878Z,20.00
2017-09-26T16:22:21.414Z,20.00
2017-09-26T16:24:48.845Z,20.00
2017-09-26T16:27:16.339Z,19.90
2017-09-26T16:29:43.807Z,19.90
2017-09-26T16:32:11.232Z,19.80
2017-09-26T16:34:38.667Z,19.70
2017-09-26T16:37:06.125Z,19.70
2017-09-26T16:39:33.556Z,19.60
2017-09-26T16:42:00.987Z,19.50
2017-09-26T16:44:29.189Z,19.20
2017-09-26T16:46:58.589Z,19.20
2017-09-26T16:49:26.024Z,19.10
2017-09-26T16:51:54.235Z,18.90
2017-09-26T16:54:21.661Z,18.90
2017-09-26T16:56:49.096Z,18.80
2017-09-26T16:59:16.524Z,18.70
2017-09-26T17:01:43.955Z,18.60
2017-09-26T17:04:11.555Z,18.50
2017-09-26T17:06:49.355Z,18.50
2017-09-26T17:09:16.783Z,18.40
2017-09-26T17:11:44.244Z,18.30
2017-09-26T17:14:11.668Z,18.20
2017-09-26T17:16:39.109Z,18.10
2017-09-26T17:19:07.308Z,17.90
2017-09-26T17:21:34.749Z,17.90
2017-09-26T17:24:02.947Z,17.70
2017-09-26T17:26:30.381Z,17.70
2017-09-26T17:28:58.571Z,17.60
2017-09-26T17:31:26.008Z,17.50
2017-09-26T17:33:54.304Z,17.30
2017-09-26T17:36:21.728Z,17.30
2017-09-26T17:38:49.164Z,17.20
2017-09-26T17:41:17.580Z,17.00
2017-09-26T17:43:45.790Z,16.80
2017-09-26T17:46:13.224Z,16.80
2017-09-26T17:48:40.656Z,16.80
2017-09-26T17:51:08.099Z,16.80
2017-09-26T17:53:35.536Z,16.70
2017-09-26T17:56:02.964Z,16.60
2017-09-26T17:58:30.408Z,16.70
2017-09-26T18:00:57.832Z,16.70
2017-09-26T18:03:25.271Z,16.70
2017-09-26T18:05:52.704Z,16.70
2017-09-26T18:08:26.886Z,16.70
2017-09-26T18:10:54.320Z,16.70
2017-09-26T18:13:21.782Z,16.70
2017-09-26T18:15:49.977Z,16.60
2017-09-26T18:18:17.408Z,16.60
2017-09-26T18:20:44.835Z,16.60
2017-09-26T18:23:12.284Z,16.60
2017-09-26T18:25:39.745Z,16.60
2017-09-26T18:28:07.164Z,16.60
2017-09-26T18:30:34.586Z,16.50
2017-09-26T18:33:02.029Z,16.40
2017-09-26T18:35:29.459Z,16.30
2017-09-26T18:37:56.904Z,16.40
2017-09-26T18:40:24.328Z,16.40
2017-09-26T18:42:53.628Z,16.40
2017-09-26T18:45:21.827Z,16.30
2017-09-26T18:47:49.259Z,16.30
2017-09-26T18:50:17.464Z,16.10
2017-09-26T18:52:44.972Z,16.10
2017-09-26T18:55:12.411Z,16.10
2017-09-26T18:57:39.850Z,16.00
2017-09-26T19:00:07.293Z,16.00
2017-09-26T19:02:34.723Z,16.00
2017-09-26T19:05:02.924Z,15.90
2017-09-26T19:07:30.448Z,15.90
2017-09-26T19:09:57.928Z,15.90
2017-09-26T19:12:26.132Z,15.80
2017-09-26T19:14:54.336Z,15.80
2017-09-26T19:17:21.773Z,15.80
2017-09-26T19:19:49.208Z,15.90
2017-09-26T19:22:16.635Z,15.90
2017-09-26T19:24:44.849Z,15.90
2017-09-26T19:27:12.284Z,15.90
2017-09-26T19:29:39.715Z,16.00
2017-09-26T19:32:07.916Z,16.00
2017-09-26T19:34:35.364Z,16.00
2017-09-26T19:37:03.569Z,16.00
2017-09-26T19:39:32.020Z,16.00
2017-09-26T19:42:00.224Z,15.90
2017-09-26T19:44:27.660Z,15.90
2017-09-26T19:46:55.094Z,15.90
2017-09-26T19:49:23.306Z,15.90
2017-09-26T19:51:50.729Z,15.80
2017-09-26T19:54:18.924Z,15.80
2017-09-26T19:56:46.383Z,15.90
2017-09-26T19:59:13.823Z,15.90
2017-09-26T20:01:42.033Z,15.90
2017-09-26T20:04:09.489Z,15.90
2017-09-26T20:06:36.911Z,15.90
2017-09-26T20:09:05.120Z,16.00
2017-09-26T20:11:32.552Z,16.00
2017-09-26T20:13:59.983Z,16.00
2017-09-26T20:16:28.487Z,16.00
2017-09-26T20:18:56.679Z,15.90
2017-09-26T20:21:24.116Z,15.90
2017-09-26T20:23:51.549Z,16.00
2017-09-26T20:26:18.983Z,16.00
2017-09-26T20:28:46.420Z,16.00
2017-09-26T20:31:13.873Z,16.00
2017-09-26T20:33:41.305Z,16.00
2017-09-26T20:36:08.741Z,16.00
2017-09-26T20:38:36.944Z,16.00
2017-09-26T20:41:04.392Z,16.00
2017-09-26T20:43:32.586Z,16.00
2017-09-26T20:46:00.016Z,16.00
2017-09-26T20:48:27.451Z,16.00
2017-09-26T20:50:54.888Z,16.00
2017-09-26T20:53:22.320Z,16.00
2017-09-26T20:55:50.519Z,16.00
2017-09-26T20:58:17.954Z,16.00
2017-09-26T21:00:45.407Z,16.00
2017-09-26T21:03:12.835Z,16.00
2017-09-26T21:05:40.268Z,16.00
2017-09-26T21:08:07.696Z,16.00
2017-09-26T21:10:35.133Z,15.90
2017-09-26T21:13:02.611Z,15.90
2017-09-26T21:15:30.027Z,15.80
2017-09-26T21:17:57.457Z,15.90
2017-09-26T21:20:24.887Z,15.80
2017-09-26T21:22:52.324Z,15.80
2017-09-26T21:25:19.764Z,15.70
2017-09-26T21:27:47.974Z,15.70
2017-09-26T21:30:15.412Z,15.70
2017-09-26T21:32:42.864Z,15.70
2017-09-26T21:35:10.289Z,15.70
2017-09-26T21:37:38.490Z,15.60
2017-09-26T21:40:06.007Z,15.60
2017-09-26T21:42:34.209Z,15.60
2017-09-26T21:45:01.639Z,15.60
2017-09-26T21:47:29.845Z,15.50
2017-09-26T21:49:57.275Z,15.40
2017-09-26T21:52:25.489Z,15.40
2017-09-26T21:54:52.917Z,15.40
2017-09-26T21:57:20.351Z,15.40
2017-09-26T21:59:47.783Z,15.30
2017-09-26T22:02:15.220Z,15.30
2017-09-26T22:04:42.657Z,15.20
2017-09-26T22:07:10.092Z,15.20
2017-09-26T22:09:37.520Z,15.20
2017-09-26T22:12:04.965Z,15.10
2017-09-26T22:14:32.399Z,15.10
2017-09-26T22:16:59.832Z,14.90
2017-09-26T22:19:27.261Z,14.90
2017-09-26T22:21:54.696Z,14.90
2017-09-26T22:24:22.127Z,14.90
2017-09-26T22:26:49.559Z,14.90
2017-09-26T22:29:17.035Z,14.70
2017-09-26T22:31:44.463Z,14.60
2017-09-26T22:34:12.659Z,14.50
2017-09-26T22:36:40.099Z,14.40
2017-09-26T22:39:07.532Z,14.50
2017-09-26T22:41:34.969Z,14.30
2017-09-26T22:44:02.400Z,14.30
2017-09-26T22:46:29.832Z,14.20
2017-09-26T22:48:57.263Z,14.20
2017-09-26T22:51:25.464Z,14.30
2017-09-26T22:53:52.900Z,14.20
2017-09-26T22:56:21.091Z,14.30
2017-09-26T22:58:48.533Z,14.20
2017-09-26T23:01:16.792Z,14.30
2017-09-26T23:03:44.232Z,14.30
2017-09-26T23:06:11.664Z,14.30
2017-09-26T23:08:39.104Z,14.30
2017-09-26T23:11:06.531Z,14.40
2017-09-26T23:13:34.743Z,14.40
2017-09-26T23:16:02.172Z,14.40
2017-09-26T23:18:30.382Z,14.50
2017-09-26T23:20:57.814Z,14.40
2017-09-26T23:23:26.005Z,14.50
2017-09-26T23:25:53.432Z,14.40
2017-09-26T23:28:21.627Z,14.40
2017-09-26T23:30:49.065Z,14.40
2017-09-26T23:33:17.275Z,14.30
2017-09-26T23:35:44.707Z,14.30
2017-09-26T23:38:12.147Z,14.30
2017-09-26T23:40:40.352Z,14.30
2017-09-26T23:43:07.780Z,14.30
2017-09-26T23:45:35.995Z,14.30
2017-09-26T23:48:03.424Z,14.30
2017-09-26T23:50:31.627Z,14.30
2017-09-26T23:52:59.052Z,14.30
2017-09-26T23:55:27.259Z,14.20
2017-09-26T23:57:54.695Z,14.20
